createdAt,value
2018-12-07T00:01:43.953Z,11.60
2018-12-07T00:04:12.608Z,11.60
2018-12-07T00:06:41.047Z,11.60
2018-12-07T00:09:09.489Z,11.60
2018-12-07T00:11:37.944Z,11.60
2018-12-07T00:14:06.355Z,11.60
2018-12-07T00:16:34.797Z,11.60
2018-12-07T00:19:03.318Z,11.60
2018-12-07T00:21:31.743Z,11.60
2018-12-07T00:24:18.965Z,11.60
2018-12-07T00:26:47.385Z,11.60
2018-12-07T00:29:15.787Z,11.60
2018-12-07T00:31:44.228Z,11.60
2018-12-07T00:34:12.653Z,11.60
2018-12-07T00:36:41.099Z,11.60
2018-12-07T00:39:09.625Z,11.60
2018-12-07T00:41:38.179Z,11.60
2018-12-07T00:44:06.610Z,11.60
2018-12-07T00:46:35.092Z,11.60
2018-12-07T00:49:03.523Z,11.60
2018-12-07T00:51:32.014Z,11.60
2018-12-07T00:54:20.806Z,11.60
2018-12-07T00:56:49.212Z,11.60
2018-12-07T00:59:17.872Z,11.60
2018-12-07T01:01:46.309Z,11.60
2018-12-07T01:04:14.917Z,11.60
2018-12-07T01:06:43.317Z,11.60
2018-12-07T01:09:11.812Z,11.60
2018-12-07T01:11:40.238Z,11.60
2018-12-07T01:14:08.624Z,11.60
2018-12-07T01:16:37.112Z,11.60
2018-12-07T01:19:05.687Z,11.60
2018-12-07T01:21:34.095Z,11.60
2018-12-07T01:24:23.364Z,11.60
2018-12-07T01:26:51.772Z,11.60
2018-12-07T01:29:20.193Z,11.60
2018-12-07T01:31:48.634Z,11.60
2018-12-07T01:34:17.044Z,11.60
2018-12-07T01:36:45.434Z,11.60
2018-12-07T01:39:13.817Z,11.60
2018-12-07T01:41:42.397Z,11.60
2018-12-07T01:44:10.769Z,11.60
2018-12-07T01:46:39.563Z,11.60
2018-12-07T01:49:08.056Z,11.60
2018-12-07T01:51:36.493Z,11.60
2018-12-07T01:54:25.415Z,11.60
2018-12-07T01:56:54.526Z,11.60
2018-12-07T01:59:22.947Z,11.60
2018-12-07T02:01:51.369Z,11.60
2018-12-07T02:04:19.771Z,11.60
2018-12-07T02:06:48.229Z,11.60
2018-12-07T02:09:16.658Z,11.60
2018-12-07T02:11:45.038Z,11.60
2018-12-07T02:14:13.652Z,11.60
2018-12-07T02:16:42.140Z,11.60
2018-12-07T02:19:10.555Z,11.60
2018-12-07T02:21:39.149Z,11.60
2018-12-07T02:24:28.414Z,11.60
2018-12-07T02:26:56.955Z,11.60
2018-12-07T02:29:25.543Z,11.60
2018-12-07T02:31:54.261Z,11.60
2018-12-07T02:34:22.708Z,11.60
2018-12-07T02:36:51.124Z,11.60
2018-12-07T02:39:19.657Z,11.60
2018-12-07T02:41:48.096Z,11.60
2018-12-07T02:44:16.489Z,11.60
2018-12-07T02:46:44.880Z,11.60
2018-12-07T02:49:13.610Z,11.60
2018-12-07T02:51:42.353Z,11.60
2018-12-07T02:54:31.182Z,11.60
2018-12-07T02:56:59.608Z,11.60
2018-12-07T02:59:28.297Z,11.60
2018-12-07T03:01:56.806Z,11.60
2018-12-07T03:04:25.228Z,11.60
2018-12-07T03:06:53.622Z,11.60
2018-12-07T03:09:22.198Z,11.60
2018-12-07T03:11:50.599Z,11.60
2018-12-07T03:14:19.005Z,11.60
2018-12-07T03:16:47.427Z,11.60
2018-12-07T03:19:15.823Z,11.60
2018-12-07T03:21:44.205Z,11.60
2018-12-07T03:24:33.090Z,11.60
2018-12-07T03:27:01.519Z,11.60
2018-12-07T03:29:29.984Z,11.60
2018-12-07T03:31:58.490Z,11.50
2018-12-07T03:34:26.880Z,11.50
2018-12-07T03:36:55.406Z,11.50
2018-12-07T03:39:23.871Z,11.50
2018-12-07T03:41:52.296Z,11.50
2018-12-07T03:44:20.703Z,11.50
2018-12-07T03:46:49.174Z,11.50
2018-12-07T03:49:17.552Z,11.60
2018-12-07T03:51:46.028Z,11.50
2018-12-07T03:54:14.447Z,11.50
2018-12-07T03:56:42.880Z,11.50
2018-12-07T03:59:11.295Z,11.50
2018-12-07T04:01:39.858Z,11.50
2018-12-07T04:04:08.281Z,11.50
2018-12-07T04:06:36.897Z,11.50
2018-12-07T04:09:07.645Z,11.50
2018-12-07T04:11:36.042Z,11.50
2018-12-07T04:14:04.555Z,11.50
2018-12-07T04:16:32.985Z,11.50
2018-12-07T04:19:01.391Z,11.50
2018-12-07T04:21:29.766Z,11.50
2018-12-07T04:23:58.693Z,11.50
2018-12-07T04:26:39.444Z,11.50
2018-12-07T04:29:09.918Z,11.40
2018-12-07T04:31:38.439Z,11.50
2018-12-07T04:34:06.812Z,11.50
2018-12-07T04:36:35.238Z,11.50
2018-12-07T04:39:05.100Z,11.50
2018-12-07T04:41:33.490Z,11.50
2018-12-07T04:44:01.889Z,11.50
2018-12-07T04:46:30.279Z,11.50
2018-12-07T04:48:58.785Z,11.50
2018-12-07T04:51:27.197Z,11.50
2018-12-07T04:53:55.589Z,11.50
2018-12-07T04:56:24.013Z,11.50
2018-12-07T04:58:52.463Z,11.50
2018-12-07T05:01:21.009Z,11.50
2018-12-07T05:03:49.404Z,11.50
2018-12-07T05:06:17.839Z,11.50
2018-12-07T05:08:46.295Z,11.50
2018-12-07T05:11:14.693Z,11.50
2018-12-07T05:13:43.472Z,11.50
2018-12-07T05:16:11.868Z,11.50
2018-12-07T05:18:40.446Z,11.50
2018-12-07T05:21:08.893Z,11.50
2018-12-07T05:23:37.286Z,11.50
2018-12-07T05:26:05.697Z,11.50
2018-12-07T05:28:34.114Z,11.50
2018-12-07T05:31:02.594Z,11.50
2018-12-07T05:33:31.018Z,11.50
2018-12-07T05:35:59.514Z,11.50
2018-12-07T05:38:28.122Z,11.50
2018-12-07T05:40:57.907Z,11.40
2018-12-07T05:43:27.191Z,11.50
2018-12-07T05:45:55.721Z,11.50
2018-12-07T05:48:24.095Z,11.50
2018-12-07T05:50:52.530Z,11.50
2018-12-07T05:53:21.170Z,11.50
2018-12-07T05:58:42.873Z,11.50
2018-12-07T06:01:11.288Z,11.50
2018-12-07T06:03:39.722Z,11.50
2018-12-07T06:06:08.142Z,11.50
2018-12-07T06:08:36.612Z,11.50
2018-12-07T06:11:05.010Z,11.50
2018-12-07T06:13:33.437Z,11.50
2018-12-07T06:16:02.349Z,11.50
2018-12-07T06:18:30.765Z,11.50
2018-12-07T06:20:59.536Z,11.50
2018-12-07T06:23:27.993Z,11.50
2018-12-07T06:28:50.948Z,11.50
2018-12-07T06:31:19.378Z,11.50
2018-12-07T06:33:47.757Z,11.50
2018-12-07T06:36:16.169Z,11.50
2018-12-07T06:38:44.686Z,11.50
2018-12-07T06:41:13.104Z,11.50
2018-12-07T06:43:41.537Z,11.50
2018-12-07T06:46:10.172Z,11.50
2018-12-07T06:48:38.636Z,11.50
2018-12-07T06:51:07.546Z,11.50
2018-12-07T06:53:36.004Z,11.50
2018-12-07T06:58:57.417Z,11.40
2018-12-07T07:02:28.963Z,11.50
2018-12-07T07:04:57.379Z,11.50
2018-12-07T07:07:25.780Z,11.50
2018-12-07T07:09:54.320Z,11.50
2018-12-07T07:12:22.744Z,11.50
2018-12-07T07:14:51.173Z,11.50
2018-12-07T07:17:19.845Z,11.40
2018-12-07T07:19:48.274Z,11.40
2018-12-07T07:22:16.647Z,11.40
2018-12-07T07:24:45.074Z,11.40
2018-12-07T07:27:13.487Z,11.40
2018-12-07T07:29:42.025Z,11.50
2018-12-07T07:32:10.461Z,11.40
2018-12-07T07:34:38.901Z,11.40
2018-12-07T07:37:07.347Z,11.40
2018-12-07T07:39:35.735Z,11.40
2018-12-07T07:42:04.159Z,11.40
2018-12-07T07:44:32.609Z,11.40
2018-12-07T07:47:01.207Z,11.40
2018-12-07T07:49:29.709Z,11.40
2018-12-07T07:51:58.091Z,11.40
2018-12-07T07:54:27.173Z,11.40
2018-12-07T07:56:59.317Z,11.40
2018-12-07T07:59:27.710Z,11.40
2018-12-07T08:01:56.097Z,11.40
2018-12-07T08:04:24.546Z,11.40
2018-12-07T08:06:52.939Z,11.40
2018-12-07T08:09:21.321Z,11.40
2018-12-07T08:11:49.896Z,11.40
2018-12-07T08:14:18.271Z,11.40
2018-12-07T08:16:46.696Z,11.40
2018-12-07T08:19:15.198Z,11.40
2018-12-07T08:21:43.636Z,11.40
2018-12-07T08:24:12.062Z,11.40
2018-12-07T08:26:40.506Z,11.40
2018-12-07T08:29:08.895Z,11.40
2018-12-07T08:31:37.292Z,11.40
2018-12-07T08:34:05.712Z,11.40
2018-12-07T08:36:34.165Z,11.40
2018-12-07T08:39:02.803Z,11.40
2018-12-07T08:41:31.227Z,11.40
2018-12-07T08:43:59.850Z,11.40
2018-12-07T08:46:28.256Z,11.40
2018-12-07T08:48:56.688Z,11.50
2018-12-07T08:51:25.094Z,11.40
2018-12-07T08:53:53.578Z,11.40
2018-12-07T08:59:15.292Z,11.50
2018-12-07T09:01:43.886Z,11.50
2018-12-07T09:04:12.308Z,11.50
2018-12-07T09:06:40.912Z,11.50
2018-12-07T09:09:09.306Z,11.50
2018-12-07T09:11:37.706Z,11.50
2018-12-07T09:14:06.101Z,11.50
2018-12-07T09:16:34.522Z,11.50
2018-12-07T09:19:02.911Z,11.50
2018-12-07T09:21:31.343Z,11.50
2018-12-07T09:23:59.776Z,11.40
2018-12-07T09:29:20.937Z,11.50
2018-12-07T09:31:49.329Z,11.50
2018-12-07T09:34:17.787Z,11.50
2018-12-07T09:36:46.361Z,11.50
2018-12-07T09:39:14.947Z,11.50
2018-12-07T09:41:43.393Z,11.50
2018-12-07T09:44:11.893Z,11.50
2018-12-07T09:46:40.371Z,11.50
2018-12-07T09:49:08.757Z,11.50
2018-12-07T09:51:37.390Z,11.50
2018-12-07T09:54:05.973Z,11.50
2018-12-07T10:02:20.537Z,11.50
2018-12-07T10:04:48.943Z,11.50
2018-12-07T10:07:17.340Z,11.50
2018-12-07T10:09:45.973Z,11.50
2018-12-07T10:12:14.394Z,11.60
2018-12-07T10:14:42.819Z,11.60
2018-12-07T10:17:11.252Z,11.60
2018-12-07T10:19:39.697Z,11.60
2018-12-07T10:22:08.097Z,11.60
2018-12-07T10:24:36.688Z,11.60
2018-12-07T10:27:11.098Z,11.60
2018-12-07T10:29:39.534Z,11.60
2018-12-07T10:32:08.204Z,11.70
2018-12-07T10:37:12.167Z,11.70
2018-12-07T10:39:40.583Z,11.70
2018-12-07T10:42:08.946Z,11.70
2018-12-07T10:44:37.639Z,11.70
2018-12-07T10:47:06.139Z,11.70
2018-12-07T10:49:34.613Z,11.70
2018-12-07T10:52:03.027Z,11.70
2018-12-07T10:54:31.617Z,11.80
2018-12-07T10:57:00.062Z,11.80
2018-12-07T10:59:28.677Z,11.80
2018-12-07T11:02:02.372Z,11.80
2018-12-07T11:04:36.265Z,11.90
2018-12-07T11:07:20.528Z,11.90
2018-12-07T11:09:54.467Z,11.90
2018-12-07T11:12:28.302Z,11.90
2018-12-07T11:15:02.150Z,11.90
2018-12-07T11:17:35.884Z,11.90
2018-12-07T11:20:10.184Z,11.90
2018-12-07T11:22:44.057Z,11.90
2018-12-07T11:26:20.540Z,11.90
2018-12-07T11:28:54.274Z,11.90
2018-12-07T11:31:28.142Z,11.90
2018-12-07T11:34:05.686Z,11.90
2018-12-07T11:36:34.184Z,11.90
2018-12-07T11:39:02.607Z,11.90
2018-12-07T11:41:31.171Z,11.90
2018-12-07T11:43:59.841Z,11.90
2018-12-07T11:46:28.243Z,12.00
2018-12-07T11:48:56.745Z,11.90
2018-12-07T11:51:25.141Z,12.00
2018-12-07T11:53:53.521Z,12.00
2018-12-07T11:56:22.224Z,12.00
2018-12-07T11:58:50.641Z,12.00
2018-12-07T12:01:19.185Z,12.00
2018-12-07T12:03:47.639Z,12.00
2018-12-07T12:06:16.268Z,12.00
2018-12-07T12:08:44.719Z,12.00
2018-12-07T12:11:13.198Z,12.00
2018-12-07T12:13:41.627Z,12.00
2018-12-07T12:16:10.056Z,12.00
2018-12-07T12:18:38.481Z,12.00
2018-12-07T12:21:06.933Z,12.00
2018-12-07T12:23:35.364Z,12.10
2018-12-07T12:26:03.735Z,12.10
2018-12-07T12:28:32.157Z,12.10
2018-12-07T12:31:00.554Z,12.10
2018-12-07T12:33:29.141Z,12.10
2018-12-07T12:36:20.390Z,12.10
2018-12-07T12:38:48.792Z,12.10
2018-12-07T12:41:17.218Z,12.10
2018-12-07T12:43:45.651Z,12.10
2018-12-07T12:46:14.092Z,12.10
2018-12-07T12:48:42.839Z,12.20
2018-12-07T12:51:11.283Z,12.10
2018-12-07T12:53:39.692Z,12.10
2018-12-07T12:56:08.083Z,12.10
2018-12-07T12:58:36.571Z,12.10
2018-12-07T13:01:04.981Z,12.10
2018-12-07T13:03:33.591Z,12.10
2018-12-07T13:06:24.531Z,12.10
2018-12-07T13:08:53.034Z,12.10
2018-12-07T13:11:21.763Z,12.10
2018-12-07T13:13:50.183Z,12.00
2018-12-07T13:16:18.964Z,12.10
2018-12-07T13:18:47.415Z,12.00
2018-12-07T13:21:15.856Z,12.00
2018-12-07T13:23:44.271Z,12.00
2018-12-07T13:26:12.683Z,12.00
2018-12-07T13:28:41.156Z,12.00
2018-12-07T13:31:09.653Z,12.00
2018-12-07T13:33:38.402Z,12.00
2018-12-07T13:36:25.906Z,12.00
2018-12-07T13:38:54.316Z,12.00
2018-12-07T13:41:22.769Z,12.00
2018-12-07T13:43:51.377Z,12.00
2018-12-07T13:46:19.925Z,11.90
2018-12-07T13:48:48.671Z,12.00
2018-12-07T13:51:17.563Z,11.90
2018-12-07T13:53:46.615Z,11.90
2018-12-07T13:56:16.321Z,11.80
2018-12-07T13:58:45.233Z,11.80
2018-12-07T14:01:13.915Z,11.80
2018-12-07T14:03:42.490Z,11.80
2018-12-07T14:06:29.765Z,11.80
2018-12-07T14:08:59.056Z,11.80
2018-12-07T14:11:27.783Z,11.80
2018-12-07T14:13:56.813Z,11.90
2018-12-07T14:16:25.507Z,11.80
2018-12-07T14:18:53.983Z,11.80
2018-12-07T14:21:22.403Z,11.70
2018-12-07T14:23:50.975Z,11.70
2018-12-07T14:26:19.646Z,11.60
2018-12-07T14:28:48.576Z,11.50
2018-12-07T14:31:17.301Z,11.50
2018-12-07T14:33:45.786Z,11.40
2018-12-07T14:36:33.119Z,11.40
2018-12-07T14:39:01.631Z,11.40
2018-12-07T14:41:30.475Z,11.30
2018-12-07T14:43:59.001Z,11.30
2018-12-07T14:46:27.576Z,11.30
2018-12-07T14:48:56.081Z,11.20
2018-12-07T14:51:24.748Z,11.20
2018-12-07T14:53:53.549Z,11.20
2018-12-07T14:56:22.093Z,11.20
2018-12-07T14:58:50.533Z,11.20
2018-12-07T15:01:23.156Z,11.10
2018-12-07T15:03:51.818Z,11.10
2018-12-07T15:06:35.098Z,11.10
2018-12-07T15:09:04.772Z,11.00
2018-12-07T15:11:33.418Z,11.00
2018-12-07T15:14:02.067Z,11.00
2018-12-07T15:16:30.686Z,11.00
2018-12-07T15:18:59.394Z,11.00
2018-12-07T15:21:27.960Z,10.90
2018-12-07T15:23:56.441Z,10.90
2018-12-07T15:26:24.880Z,10.90
2018-12-07T15:28:53.395Z,10.90
2018-12-07T15:31:22.641Z,10.90
2018-12-07T15:33:51.843Z,10.90
2018-12-07T15:36:20.392Z,10.90
2018-12-07T15:38:48.933Z,10.90
2018-12-07T15:41:17.699Z,10.90
2018-12-07T15:43:46.359Z,10.80
2018-12-07T15:46:14.966Z,10.80
2018-12-07T15:48:43.464Z,10.80
2018-12-07T15:51:12.059Z,10.80
2018-12-07T15:53:40.619Z,10.80
2018-12-07T15:56:09.050Z,10.80
2018-12-07T15:58:37.569Z,10.80
2018-12-07T16:01:06.330Z,10.70
2018-12-07T16:03:35.092Z,10.70
2018-12-07T16:06:03.650Z,10.80
2018-12-07T16:08:32.143Z,10.80
2018-12-07T16:11:00.744Z,10.80
2018-12-07T16:13:29.197Z,10.80
2018-12-07T16:15:58.133Z,10.80
2018-12-07T16:18:26.826Z,10.80
2018-12-07T16:20:55.503Z,10.80
2018-12-07T16:23:24.416Z,10.80
2018-12-07T16:25:53.174Z,10.80
2018-12-07T16:28:21.783Z,10.90
2018-12-07T16:30:50.634Z,10.90
2018-12-07T16:33:19.609Z,10.80
2018-12-07T16:35:49.613Z,10.80
2018-12-07T16:38:18.143Z,10.40
2018-12-07T16:40:46.561Z,10.10
2018-12-07T16:43:15.198Z,9.80
2018-12-07T16:45:43.717Z,9.60
2018-12-07T16:48:12.436Z,9.50
2018-12-07T16:50:40.984Z,9.30
2018-12-07T16:53:09.612Z,9.20
2018-12-07T16:55:38.195Z,9.10
2018-12-07T16:58:13.204Z,9.10
2018-12-07T17:00:41.921Z,9.00
2018-12-07T17:03:10.852Z,8.90
2018-12-07T17:05:39.859Z,8.80
2018-12-07T17:08:08.453Z,8.80
2018-12-07T17:10:37.070Z,8.80
2018-12-07T17:13:05.514Z,8.80
2018-12-07T17:15:34.123Z,8.70
2018-12-07T17:18:02.879Z,8.70
2018-12-07T17:20:31.485Z,8.60
2018-12-07T17:23:00.141Z,8.60
2018-12-07T17:25:28.803Z,8.60
2018-12-07T17:27:57.449Z,8.50
2018-12-07T17:30:25.972Z,8.50
2018-12-07T17:32:54.626Z,8.40
2018-12-07T17:35:23.054Z,8.40
2018-12-07T17:37:51.682Z,8.30
2018-12-07T17:40:20.550Z,8.20
2018-12-07T17:42:49.461Z,8.20
2018-12-07T17:45:18.211Z,8.10
2018-12-07T17:47:47.196Z,8.10
2018-12-07T17:50:15.805Z,8.00
2018-12-07T17:52:44.258Z,8.00
2018-12-07T17:55:12.829Z,8.00
2018-12-07T17:57:41.669Z,7.90
2018-12-07T18:00:13.021Z,8.00
2018-12-07T18:02:42.220Z,8.00
2018-12-07T18:05:10.653Z,7.90
2018-12-07T18:07:39.368Z,7.90
2018-12-07T18:10:09.138Z,8.00
2018-12-07T18:12:37.905Z,7.90
2018-12-07T18:15:08.108Z,7.90
2018-12-07T18:17:36.746Z,7.90
2018-12-07T18:20:06.978Z,7.90
2018-12-07T18:22:35.532Z,7.90
2018-12-07T18:25:04.388Z,7.90
2018-12-07T18:27:32.822Z,7.90
2018-12-07T18:30:01.498Z,7.90
2018-12-07T18:32:30.335Z,7.90
2018-12-07T18:34:59.037Z,8.00
2018-12-07T18:37:27.606Z,8.00
2018-12-07T18:39:56.431Z,8.00
2018-12-07T18:42:25.067Z,8.00
2018-12-07T18:44:53.851Z,8.00
2018-12-07T18:47:22.567Z,8.00
2018-12-07T18:49:51.062Z,8.00
2018-12-07T18:52:19.516Z,8.10
2018-12-07T18:54:48.222Z,8.10
2018-12-07T18:57:17.035Z,8.10
2018-12-07T18:59:45.893Z,8.10
2018-12-07T19:02:14.525Z,8.20
2018-12-07T19:04:43.130Z,8.20
2018-12-07T19:07:11.793Z,8.20
2018-12-07T19:09:40.415Z,8.30
2018-12-07T19:12:09.253Z,8.30
2018-12-07T19:14:38.046Z,8.30
2018-12-07T19:17:09.231Z,8.30
2018-12-07T19:19:38.003Z,8.30
2018-12-07T19:22:06.736Z,8.20
2018-12-07T19:24:35.683Z,8.10
2018-12-07T19:27:04.478Z,8.10
2018-12-07T19:29:33.055Z,8.00
2018-12-07T19:32:01.806Z,8.00
2018-12-07T19:34:30.645Z,8.00
2018-12-07T19:36:59.644Z,8.00
2018-12-07T19:39:28.311Z,8.10
2018-12-07T19:41:56.837Z,8.10
2018-12-07T19:44:25.520Z,8.10
2018-12-07T19:46:54.076Z,8.10
2018-12-07T19:49:23.112Z,8.10
2018-12-07T19:51:52.010Z,8.10
2018-12-07T19:54:20.629Z,8.10
2018-12-07T19:56:49.163Z,8.00
2018-12-07T19:59:17.908Z,8.00
2018-12-07T20:01:46.366Z,7.90
2018-12-07T20:04:15.344Z,7.90
2018-12-07T20:06:44.258Z,7.80
2018-12-07T20:09:14.168Z,7.60
2018-12-07T20:11:42.773Z,7.60
2018-12-07T20:14:11.341Z,7.50
2018-12-07T20:16:39.840Z,7.40
2018-12-07T20:19:08.387Z,7.50
2018-12-07T20:21:37.322Z,7.50
2018-12-07T20:24:06.135Z,7.30
2018-12-07T20:26:34.665Z,7.30
2018-12-07T20:29:03.864Z,7.30
2018-12-07T20:31:33.033Z,7.30
2018-12-07T20:34:01.507Z,7.20
2018-12-07T20:36:30.258Z,7.30
2018-12-07T20:38:58.869Z,7.20
2018-12-07T20:41:27.571Z,7.20
2018-12-07T20:43:56.275Z,7.20
2018-12-07T20:46:25.461Z,7.10
2018-12-07T20:48:54.273Z,7.10
2018-12-07T20:51:22.873Z,7.20
2018-12-07T20:53:51.637Z,7.30
2018-12-07T20:56:20.581Z,7.40
2018-12-07T20:58:49.359Z,7.40
2018-12-07T21:01:18.173Z,7.30
2018-12-07T21:04:20.133Z,7.30
2018-12-07T21:08:14.090Z,7.30
2018-12-07T21:11:51.916Z,7.30
2018-12-07T21:14:27.964Z,7.30
2018-12-07T21:17:09.176Z,7.20
2018-12-07T21:19:45.368Z,7.20
2018-12-07T21:22:14.230Z,7.10
2018-12-07T21:24:42.864Z,7.10
2018-12-07T21:27:11.784Z,7.00
2018-12-07T21:29:40.820Z,7.00
2018-12-07T21:32:15.285Z,6.90
2018-12-07T21:34:58.049Z,6.90
2018-12-07T21:37:26.715Z,6.90
2018-12-07T21:40:13.907Z,6.90
2018-12-07T21:42:42.604Z,6.90
2018-12-07T21:45:11.461Z,7.00
2018-12-07T21:48:08.613Z,7.00
2018-12-07T21:50:38.203Z,7.00
2018-12-07T21:53:06.957Z,7.00
2018-12-07T21:55:35.636Z,7.00
2018-12-07T21:58:04.263Z,6.90
2018-12-07T22:00:32.932Z,6.90
2018-12-07T22:03:02.034Z,6.90
2018-12-07T22:05:31.160Z,7.00
2018-12-07T22:07:59.834Z,7.00
2018-12-07T22:10:28.878Z,7.10
2018-12-07T22:12:57.755Z,7.00
2018-12-07T22:15:27.081Z,7.00
2018-12-07T22:17:56.037Z,6.90
2018-12-07T22:20:25.367Z,6.90
2018-12-07T22:22:55.594Z,6.90
2018-12-07T22:25:24.563Z,6.90
2018-12-07T22:27:54.027Z,6.90
2018-12-07T22:30:23.164Z,6.90
2018-12-07T22:32:51.582Z,6.90
2018-12-07T22:35:20.281Z,6.80
2018-12-07T22:37:48.992Z,6.80
2018-12-07T22:40:17.669Z,6.70
2018-12-07T22:42:46.116Z,6.70
2018-12-07T22:45:14.598Z,6.80
2018-12-07T22:47:43.129Z,6.80
2018-12-07T22:50:11.764Z,6.80
2018-12-07T22:52:40.139Z,6.90
2018-12-07T22:55:08.871Z,6.80
2018-12-07T22:57:37.578Z,6.80
2018-12-07T23:00:07.112Z,6.80
2018-12-07T23:02:35.555Z,6.90
2018-12-07T23:05:04.269Z,6.90
2018-12-07T23:07:32.810Z,6.90
2018-12-07T23:10:01.409Z,6.90
2018-12-07T23:12:29.825Z,7.00
2018-12-07T23:14:58.407Z,7.00
2018-12-07T23:17:26.849Z,7.10
2018-12-07T23:19:55.269Z,7.10
2018-12-07T23:22:23.673Z,7.10
2018-12-07T23:24:52.087Z,7.10
2018-12-07T23:27:20.661Z,7.10
2018-12-07T23:29:49.069Z,7.20
2018-12-07T23:32:17.483Z,7.20
2018-12-07T23:34:46.032Z,7.20
2018-12-07T23:37:14.446Z,7.20
2018-12-07T23:39:42.930Z,7.10
2018-12-07T23:42:11.311Z,6.90
2018-12-07T23:44:39.711Z,6.90
2018-12-07T23:47:08.145Z,6.80
2018-12-07T23:49:36.522Z,6.80
2018-12-07T23:52:05.084Z,6.70
2018-12-07T23:54:33.548Z,6.60
2018-12-07T23:57:02.031Z,6.60
2018-12-07T23:59:30.429Z,6.60
